sensor_id;sensor_type;location;lat;lon;timestamp;pressure;altitude;pressure_sealevel;temperature;humidity
3250;BME280;1637;42.020;23.992;2023-03-13T00:00:25;92882.47;;;0.79;80.36
3250;BME280;1637;42.020;23.992;2023-03-13T00:02:52;92874.47;;;0.91;80.22
3250;BME280;1637;42.020;23.992;2023-03-13T00:05:18;92875.09;;;1.00;79.57
3250;BME280;1637;42.020;23.992;2023-03-13T00:07:45;92880.25;;;0.81;80.18
3250;BME280;1637;42.020;23.992;2023-03-13T00:10:13;92877.63;;;0.81;80.61
3250;BME280;1637;42.020;23.992;2023-03-13T00:12:40;92822.88;;;0.18;80.66
3250;BME280;1637;42.020;23.992;2023-03-13T00:15:08;92880.38;;;0.56;81.15
3250;BME280;1637;42.020;23.992;2023-03-13T00:17:35;92908.88;;;0.26;83.53
3250;BME280;1637;42.020;23.992;2023-03-13T00:20:02;92880.44;;;0.32;82.87
3250;BME280;1637;42.020;23.992;2023-03-13T00:22:29;92885.34;;;0.46;81.95
3250;BME280;1637;42.020;23.992;2023-03-13T00:24:56;92885.06;;;0.35;82.14
3250;BME280;1637;42.020;23.992;2023-03-13T00:27:24;92876.56;;;0.02;83.86
3250;BME280;1637;42.020;23.992;2023-03-13T00:29:51;92879.28;;;0.17;84.46
3250;BME280;1637;42.020;23.992;2023-03-13T00:32:18;92889.25;;;0.24;84.88
3250;BME280;1637;42.020;23.992;2023-03-13T00:34:45;92895.03;;;0.29;85.73
3250;BME280;1637;42.020;23.992;2023-03-13T00:37:11;92896.97;;;0.05;87.45
3250;BME280;1637;42.020;23.992;2023-03-13T00:39:38;92897.03;;;0.32;86.82
3250;BME280;1637;42.020;23.992;2023-03-13T00:42:05;92895.78;;;0.42;87.13
3250;BME280;1637;42.020;23.992;2023-03-13T00:44:33;92891.63;;;0.41;86.55
3250;BME280;1637;42.020;23.992;2023-03-13T00:47:00;92892.16;;;-0.06;88.56
3250;BME280;1637;42.020;23.992;2023-03-13T00:49:27;92889.22;;;-0.04;89.38
3250;BME280;1637;42.020;23.992;2023-03-13T00:51:54;92890.56;;;0.58;86.18
3250;BME280;1637;42.020;23.992;2023-03-13T00:54:20;92892.69;;;0.80;84.08
3250;BME280;1637;42.020;23.992;2023-03-13T00:56:47;92892.47;;;0.73;83.78
3250;BME280;1637;42.020;23.992;2023-03-13T00:59:14;92893.81;;;0.39;85.28
3250;BME280;1637;42.020;23.992;2023-03-13T01:01:42;92890.66;;;0.33;85.66
3250;BME280;1637;42.020;23.992;2023-03-13T01:04:10;92883.44;;;0.58;83.01
3250;BME280;1637;42.020;23.992;2023-03-13T01:06:39;92898.59;;;0.61;82.46
3250;BME280;1637;42.020;23.992;2023-03-13T01:09:08;92891.19;;;0.39;82.85
3250;BME280;1637;42.020;23.992;2023-03-13T01:11:37;92900.47;;;0.49;83.12
3250;BME280;1637;42.020;23.992;2023-03-13T01:14:06;92875.44;;;0.15;84.50
3250;BME280;1637;42.020;23.992;2023-03-13T01:16:35;92899.88;;;0.27;84.59
3250;BME280;1637;42.020;23.992;2023-03-13T01:19:05;92901.34;;;0.53;83.20
3250;BME280;1637;42.020;23.992;2023-03-13T01:21:33;92898.91;;;0.60;82.50
3250;BME280;1637;42.020;23.992;2023-03-13T01:24:00;92902.00;;;0.50;83.52
3250;BME280;1637;42.020;23.992;2023-03-13T01:26:27;92900.78;;;0.59;82.44
3250;BME280;1637;42.020;23.992;2023-03-13T01:28:54;92896.53;;;0.43;83.02
3250;BME280;1637;42.020;23.992;2023-03-13T01:31:23;92899.09;;;0.39;83.97
3250;BME280;1637;42.020;23.992;2023-03-13T01:33:53;92891.69;;;0.17;84.25
3250;BME280;1637;42.020;23.992;2023-03-13T01:36:22;92898.28;;;0.11;85.25
3250;BME280;1637;42.020;23.992;2023-03-13T01:38:49;92902.78;;;0.10;85.43
3250;BME280;1637;42.020;23.992;2023-03-13T01:41:17;92906.72;;;0.16;85.02
3250;BME280;1637;42.020;23.992;2023-03-13T01:43:45;92901.06;;;-0.10;85.57
3250;BME280;1637;42.020;23.992;2023-03-13T01:46:14;92911.34;;;0.07;85.17
3250;BME280;1637;42.020;23.992;2023-03-13T01:48:48;92870.47;;;-0.27;85.22
3250;BME280;1637;42.020;23.992;2023-03-13T01:51:20;92905.56;;;-0.11;86.04
3250;BME280;1637;42.020;23.992;2023-03-13T01:53:54;92902.38;;;-0.41;87.30
3250;BME280;1637;42.020;23.992;2023-03-13T01:56:25;92904.91;;;-0.56;88.48
3250;BME280;1637;42.020;23.992;2023-03-13T01:58:55;92905.56;;;-0.72;89.31
3250;BME280;1637;42.020;23.992;2023-03-13T02:01:23;92900.09;;;-0.54;89.24
3250;BME280;1637;42.020;23.992;2023-03-13T02:03:51;92913.00;;;-0.61;89.07
3250;BME280;1637;42.020;23.992;2023-03-13T02:06:19;92917.19;;;-0.36;89.24
3250;BME280;1637;42.020;23.992;2023-03-13T02:08:51;92910.28;;;-0.53;89.00
3250;BME280;1637;42.020;23.992;2023-03-13T02:11:26;92888.19;;;-1.09;88.72
3250;BME280;1637;42.020;23.992;2023-03-13T02:13:55;92916.59;;;-0.78;88.41
3250;BME280;1637;42.020;23.992;2023-03-13T02:16:23;92820.72;;;-1.62;88.41
3250;BME280;1637;42.020;23.992;2023-03-13T02:18:49;92919.91;;;-0.69;87.24
3250;BME280;1637;42.020;23.992;2023-03-13T02:21:25;92936.22;;;-0.76;87.48
3250;BME280;1637;42.020;23.992;2023-03-13T02:24:00;92930.06;;;-0.80;88.45
3250;BME280;1637;42.020;23.992;2023-03-13T02:26:30;92923.78;;;-1.12;88.92
3250;BME280;1637;42.020;23.992;2023-03-13T02:28:57;92943.22;;;-0.80;88.32
3250;BME280;1637;42.020;23.992;2023-03-13T02:31:24;92949.31;;;-1.00;88.58
3250;BME280;1637;42.020;23.992;2023-03-13T02:33:52;92949.56;;;-0.81;89.39
3250;BME280;1637;42.020;23.992;2023-03-13T02:36:20;92956.00;;;-0.45;87.35
3250;BME280;1637;42.020;23.992;2023-03-13T02:38:52;92963.34;;;-0.26;84.87
3250;BME280;1637;42.020;23.992;2023-03-13T02:41:21;92955.19;;;-0.70;86.76
3250;BME280;1637;42.020;23.992;2023-03-13T02:43:49;92964.50;;;-0.60;85.60
3250;BME280;1637;42.020;23.992;2023-03-13T02:46:18;92961.84;;;-0.85;86.91
3250;BME280;1637;42.020;23.992;2023-03-13T02:48:47;92975.25;;;-0.65;86.09
3250;BME280;1637;42.020;23.992;2023-03-13T02:51:17;92865.97;;;-1.45;87.00
3250;BME280;1637;42.020;23.992;2023-03-13T02:53:48;92976.53;;;-0.84;88.13
3250;BME280;1637;42.020;23.992;2023-03-13T02:56:17;92975.31;;;-0.86;89.54
3250;BME280;1637;42.020;23.992;2023-03-13T02:58:45;92982.34;;;-1.11;91.49
3250;BME280;1637;42.020;23.992;2023-03-13T03:01:13;92980.47;;;-0.90;91.58
3250;BME280;1637;42.020;23.992;2023-03-13T03:03:40;92979.84;;;-1.08;92.95
3250;BME280;1637;42.020;23.992;2023-03-13T03:06:07;92991.38;;;-1.00;92.62
3250;BME280;1637;42.020;23.992;2023-03-13T03:08:34;92985.56;;;-1.06;92.41
3250;BME280;1637;42.020;23.992;2023-03-13T03:11:01;92987.72;;;-0.75;91.49
3250;BME280;1637;42.020;23.992;2023-03-13T03:13:30;92999.63;;;-0.89;92.08
3250;BME280;1637;42.020;23.992;2023-03-13T03:15:58;93010.09;;;-1.01;92.98
3250;BME280;1637;42.020;23.992;2023-03-13T03:18:26;93014.97;;;-1.12;92.04
3250;BME280;1637;42.020;23.992;2023-03-13T03:20:52;93014.59;;;-1.44;93.51
3250;BME280;1637;42.020;23.992;2023-03-13T03:23:19;93010.31;;;-1.07;92.41
3250;BME280;1637;42.020;23.992;2023-03-13T03:25:46;93020.56;;;-0.81;89.43
3250;BME280;1637;42.020;23.992;2023-03-13T03:28:13;93027.34;;;-0.92;89.23
3250;BME280;1637;42.020;23.992;2023-03-13T03:30:39;93027.66;;;-0.93;90.19
3250;BME280;1637;42.020;23.992;2023-03-13T03:33:06;93087.81;;;-1.13;90.50
3250;BME280;1637;42.020;23.992;2023-03-13T03:35:34;93026.69;;;-0.89;88.92
3250;BME280;1637;42.020;23.992;2023-03-13T03:38:03;93030.00;;;-1.33;91.21
3250;BME280;1637;42.020;23.992;2023-03-13T03:40:30;93028.22;;;-0.88;90.33
3250;BME280;1637;42.020;23.992;2023-03-13T03:42:57;93035.50;;;-0.73;89.19
3250;BME280;1637;42.020;23.992;2023-03-13T03:45:24;93029.41;;;-1.18;90.87
3250;BME280;1637;42.020;23.992;2023-03-13T03:47:51;93032.81;;;-1.39;92.14
3250;BME280;1637;42.020;23.992;2023-03-13T03:50:18;93033.38;;;-1.54;93.59
3250;BME280;1637;42.020;23.992;2023-03-13T03:52:46;93039.66;;;-1.67;94.18
3250;BME280;1637;42.020;23.992;2023-03-13T03:55:12;93045.91;;;-1.59;93.99
3250;BME280;1637;42.020;23.992;2023-03-13T03:57:39;93055.41;;;-1.67;94.58
3250;BME280;1637;42.020;23.992;2023-03-13T04:00:07;93064.22;;;-1.71;94.47
3250;BME280;1637;42.020;23.992;2023-03-13T04:02:35;93065.81;;;-1.29;93.29
3250;BME280;1637;42.020;23.992;2023-03-13T04:05:02;93067.25;;;-1.61;93.45
3250;BME280;1637;42.020;23.992;2023-03-13T04:07:29;93080.75;;;-1.71;93.95
3250;BME280;1637;42.020;23.992;2023-03-13T04:09:58;93062.19;;;-1.95;94.45
3250;BME280;1637;42.020;23.992;2023-03-13T04:12:24;93071.72;;;-1.91;96.46
3250;BME280;1637;42.020;23.992;2023-03-13T04:14:51;93070.13;;;-1.83;96.39
3250;BME280;1637;42.020;23.992;2023-03-13T04:17:18;93061.19;;;-1.82;96.77
3250;BME280;1637;42.020;23.992;2023-03-13T04:19:45;93074.94;;;-1.85;97.22
3250;BME280;1637;42.020;23.992;2023-03-13T04:22:11;93079.47;;;-1.65;97.57
3250;BME280;1637;42.020;23.992;2023-03-13T04:24:38;93095.81;;;-1.30;95.11
3250;BME280;1637;42.020;23.992;2023-03-13T04:27:06;93149.22;;;-1.47;95.50
3250;BME280;1637;42.020;23.992;2023-03-13T04:29:33;93098.53;;;-1.77;97.03
3250;BME280;1637;42.020;23.992;2023-03-13T04:32:00;93099.38;;;-1.93;96.31
3250;BME280;1637;42.020;23.992;2023-03-13T04:34:27;93099.84;;;-1.91;96.10
3250;BME280;1637;42.020;23.992;2023-03-13T04:36:54;93108.06;;;-1.43;93.52
3250;BME280;1637;42.020;23.992;2023-03-13T04:39:21;93106.75;;;-1.49;92.62
3250;BME280;1637;42.020;23.992;2023-03-13T04:41:49;93104.75;;;-1.52;93.49
3250;BME280;1637;42.020;23.992;2023-03-13T04:44:18;93112.69;;;-1.40;93.64
3250;BME280;1637;42.020;23.992;2023-03-13T04:46:45;93115.00;;;-1.38;92.97
3250;BME280;1637;42.020;23.992;2023-03-13T04:49:12;93102.38;;;-1.45;92.86
3250;BME280;1637;42.020;23.992;2023-03-13T04:51:39;93120.66;;;-1.57;93.53
3250;BME280;1637;42.020;23.992;2023-03-13T04:54:06;93120.84;;;-1.91;94.85
3250;BME280;1637;42.020;23.992;2023-03-13T04:56:33;93084.50;;;-1.81;93.79
3250;BME280;1637;42.020;23.992;2023-03-13T04:59:00;93105.44;;;-1.13;91.52
3250;BME280;1637;42.020;23.992;2023-03-13T05:01:28;93130.81;;;-0.55;87.29
3250;BME280;1637;42.020;23.992;2023-03-13T05:03:55;93099.50;;;-0.03;82.76
3250;BME280;1637;42.020;23.992;2023-03-13T05:06:22;93138.81;;;0.63;78.84
3250;BME280;1637;42.020;23.992;2023-03-13T05:08:49;93143.56;;;1.34;76.23
3250;BME280;1637;42.020;23.992;2023-03-13T05:11:16;93147.38;;;2.99;91.03
3250;BME280;1637;42.020;23.992;2023-03-13T05:13:42;93159.06;;;4.49;81.93
3250;BME280;1637;42.020;23.992;2023-03-13T05:16:09;93164.16;;;4.38;65.24
3250;BME280;1637;42.020;23.992;2023-03-13T05:18:37;93165.78;;;3.27;65.21
3250;BME280;1637;42.020;23.992;2023-03-13T05:21:05;93165.22;;;3.37;68.25
3250;BME280;1637;42.020;23.992;2023-03-13T05:23:31;93164.81;;;3.55;63.55
3250;BME280;1637;42.020;23.992;2023-03-13T05:25:58;93173.69;;;4.01;61.74
3250;BME280;1637;42.020;23.992;2023-03-13T05:28:25;93155.34;;;4.54;59.75
3250;BME280;1637;42.020;23.992;2023-03-13T05:30:52;93187.91;;;5.00;58.60
3250;BME280;1637;42.020;23.992;2023-03-13T05:33:19;93147.75;;;4.75;57.92
3250;BME280;1637;42.020;23.992;2023-03-13T05:35:48;93199.09;;;4.86;58.53
3250;BME280;1637;42.020;23.992;2023-03-13T05:38:15;93195.41;;;5.43;57.19
3250;BME280;1637;42.020;23.992;2023-03-13T05:40:42;93202.75;;;5.80;56.19
3250;BME280;1637;42.020;23.992;2023-03-13T05:43:08;93189.91;;;6.15;54.92
3250;BME280;1637;42.020;23.992;2023-03-13T05:45:35;93195.69;;;6.58;53.97
3250;BME280;1637;42.020;23.992;2023-03-13T05:48:02;93199.44;;;6.16;55.23
3250;BME280;1637;42.020;23.992;2023-03-13T05:50:29;93207.44;;;5.64;57.33
3250;BME280;1637;42.020;23.992;2023-03-13T05:52:57;93209.81;;;5.69;57.15
3250;BME280;1637;42.020;23.992;2023-03-13T05:55:24;93212.41;;;6.22;55.74
3250;BME280;1637;42.020;23.992;2023-03-13T05:57:51;93210.88;;;6.95;54.07
3250;BME280;1637;42.020;23.992;2023-03-13T06:00:18;93215.56;;;7.12;53.00
3250;BME280;1637;42.020;23.992;2023-03-13T06:02:45;93205.50;;;6.91;54.51
3250;BME280;1637;42.020;23.992;2023-03-13T06:05:14;93193.53;;;6.00;54.54
3250;BME280;1637;42.020;23.992;2023-03-13T06:07:41;93219.16;;;6.49;54.71
3250;BME280;1637;42.020;23.992;2023-03-13T06:10:10;93213.19;;;6.26;55.73
3250;BME280;1637;42.020;23.992;2023-03-13T06:12:38;93216.91;;;6.92;54.16
3250;BME280;1637;42.020;23.992;2023-03-13T06:15:05;93215.91;;;6.63;53.95
3250;BME280;1637;42.020;23.992;2023-03-13T06:17:34;93217.22;;;6.46;54.35
3250;BME280;1637;42.020;23.992;2023-03-13T06:20:00;93226.63;;;6.36;54.84
3250;BME280;1637;42.020;23.992;2023-03-13T06:22:29;93222.44;;;6.72;54.89
3250;BME280;1637;42.020;23.992;2023-03-13T06:24:56;93223.69;;;6.82;54.64
3250;BME280;1637;42.020;23.992;2023-03-13T06:27:24;93223.41;;;7.38;52.65
3250;BME280;1637;42.020;23.992;2023-03-13T06:29:51;93240.22;;;8.08;51.59
3250;BME280;1637;42.020;23.992;2023-03-13T06:32:18;93231.22;;;7.65;52.65
3250;BME280;1637;42.020;23.992;2023-03-13T06:34:44;93235.84;;;8.47;50.21
3250;BME280;1637;42.020;23.992;2023-03-13T06:37:11;93248.22;;;9.65;47.26
3250;BME280;1637;42.020;23.992;2023-03-13T06:39:38;93248.59;;;9.85;46.67
3250;BME280;1637;42.020;23.992;2023-03-13T06:42:05;93238.63;;;10.00;45.65
3250;BME280;1637;42.020;23.992;2023-03-13T06:44:33;93236.41;;;9.35;46.13
3250;BME280;1637;42.020;23.992;2023-03-13T06:47:00;93239.06;;;9.74;45.52
3250;BME280;1637;42.020;23.992;2023-03-13T06:49:27;93237.16;;;9.53;46.99
3250;BME280;1637;42.020;23.992;2023-03-13T06:51:56;93232.19;;;8.01;49.21
3250;BME280;1637;42.020;23.992;2023-03-13T06:54:23;93232.19;;;9.23;47.67
3250;BME280;1637;42.020;23.992;2023-03-13T06:56:50;93226.44;;;9.17;47.56
3250;BME280;1637;42.020;23.992;2023-03-13T06:59:16;93231.00;;;8.85;48.66
3250;BME280;1637;42.020;23.992;2023-03-13T07:01:45;93227.56;;;9.91;46.62
3250;BME280;1637;42.020;23.992;2023-03-13T07:04:12;93236.28;;;10.27;45.09
3250;BME280;1637;42.020;23.992;2023-03-13T07:06:39;93208.47;;;9.96;45.31
3250;BME280;1637;42.020;23.992;2023-03-13T07:09:06;93235.63;;;9.77;45.95
3250;BME280;1637;42.020;23.992;2023-03-13T07:11:33;93238.13;;;10.55;44.16
3250;BME280;1637;42.020;23.992;2023-03-13T07:14:00;93234.75;;;11.13;42.65
3250;BME280;1637;42.020;23.992;2023-03-13T07:16:27;93236.72;;;11.57;41.17
3250;BME280;1637;42.020;23.992;2023-03-13T07:18:55;93241.91;;;11.27;42.41
3250;BME280;1637;42.020;23.992;2023-03-13T07:21:22;93240.44;;;11.70;41.02
3250;BME280;1637;42.020;23.992;2023-03-13T07:23:48;93243.56;;;11.14;42.33
3250;BME280;1637;42.020;23.992;2023-03-13T07:26:15;93227.97;;;9.61;43.46
3250;BME280;1637;42.020;23.992;2023-03-13T07:28:42;93241.78;;;11.48;41.12
3250;BME280;1637;42.020;23.992;2023-03-13T07:31:11;93240.06;;;11.68;40.39
3250;BME280;1637;42.020;23.992;2023-03-13T07:33:38;93216.41;;;13.53;36.85
3250;BME280;1637;42.020;23.992;2023-03-13T07:36:08;93235.03;;;13.17;37.19
3250;BME280;1637;42.020;23.992;2023-03-13T07:38:35;93236.81;;;11.47;40.55
3250;BME280;1637;42.020;23.992;2023-03-13T07:41:02;93223.25;;;10.40;43.52
3250;BME280;1637;42.020;23.992;2023-03-13T07:43:30;93235.13;;;11.15;40.84
3250;BME280;1637;42.020;23.992;2023-03-13T07:45:58;93233.47;;;10.66;41.56
3250;BME280;1637;42.020;23.992;2023-03-13T07:48:28;93231.56;;;10.63;43.31
3250;BME280;1637;42.020;23.992;2023-03-13T07:50:55;93231.88;;;12.92;38.12
3250;BME280;1637;42.020;23.992;2023-03-13T07:53:24;93224.31;;;12.19;40.48
3250;BME280;1637;42.020;23.992;2023-03-13T07:55:52;93197.50;;;14.03;35.55
3250;BME280;1637;42.020;23.992;2023-03-13T07:58:20;93229.31;;;13.89;36.54
3250;BME280;1637;42.020;23.992;2023-03-13T08:00:47;93225.31;;;14.40;35.09
3250;BME280;1637;42.020;23.992;2023-03-13T08:03:13;93244.69;;;14.94;33.55
3250;BME280;1637;42.020;23.992;2023-03-13T08:05:40;93224.66;;;13.16;36.69
3250;BME280;1637;42.020;23.992;2023-03-13T08:08:07;93222.50;;;13.57;36.22
3250;BME280;1637;42.020;23.992;2023-03-13T08:10:35;93227.41;;;14.32;35.26
3250;BME280;1637;42.020;23.992;2023-03-13T08:13:02;93217.88;;;13.58;37.10
3250;BME280;1637;42.020;23.992;2023-03-13T08:15:29;93212.19;;;14.82;34.74
3250;BME280;1637;42.020;23.992;2023-03-13T08:17:56;93208.53;;;14.92;33.87
3250;BME280;1637;42.020;23.992;2023-03-13T08:20:23;93210.94;;;15.58;32.30
3250;BME280;1637;42.020;23.992;2023-03-13T08:22:50;93191.19;;;15.09;33.82
3250;BME280;1637;42.020;23.992;2023-03-13T08:25:16;93204.00;;;15.05;32.90
3250;BME280;1637;42.020;23.992;2023-03-13T08:27:44;93191.06;;;15.32;32.65
3250;BME280;1637;42.020;23.992;2023-03-13T08:30:12;93192.41;;;14.52;34.28
3250;BME280;1637;42.020;23.992;2023-03-13T08:32:39;93192.97;;;13.77;34.32
3250;BME280;1637;42.020;23.992;2023-03-13T08:35:07;93195.38;;;13.71;34.37
3250;BME280;1637;42.020;23.992;2023-03-13T08:37:34;93204.94;;;13.72;34.26
3250;BME280;1637;42.020;23.992;2023-03-13T08:40:01;93207.78;;;13.89;34.69
3250;BME280;1637;42.020;23.992;2023-03-13T08:42:35;93203.38;;;13.52;34.30
3250;BME280;1637;42.020;23.992;2023-03-13T08:45:04;93206.59;;;13.16;32.81
3250;BME280;1637;42.020;23.992;2023-03-13T08:47:31;93208.13;;;13.67;34.95
3250;BME280;1637;42.020;23.992;2023-03-13T08:49:57;93207.53;;;13.80;33.70
3250;BME280;1637;42.020;23.992;2023-03-13T08:52:24;93206.53;;;14.56;33.69
3250;BME280;1637;42.020;23.992;2023-03-13T08:54:52;93207.56;;;15.18;32.42
3250;BME280;1637;42.020;23.992;2023-03-13T08:57:18;93202.94;;;14.43;33.31
3250;BME280;1637;42.020;23.992;2023-03-13T08:59:45;93203.00;;;14.59;33.42
3250;BME280;1637;42.020;23.992;2023-03-13T09:02:13;93199.31;;;15.25;31.39
3250;BME280;1637;42.020;23.992;2023-03-13T09:04:44;93192.16;;;12.76;34.62
3250;BME280;1637;42.020;23.992;2023-03-13T09:07:12;93190.91;;;12.54;35.36
3250;BME280;1637;42.020;23.992;2023-03-13T09:09:38;93185.75;;;12.66;36.53
3250;BME280;1637;42.020;23.992;2023-03-13T09:12:06;93187.44;;;13.37;36.38
3250;BME280;1637;42.020;23.992;2023-03-13T09:14:33;93185.22;;;14.02;34.86
3250;BME280;1637;42.020;23.992;2023-03-13T09:17:00;93183.19;;;13.87;35.46
3250;BME280;1637;42.020;23.992;2023-03-13T09:19:30;93199.31;;;14.53;34.35
3250;BME280;1637;42.020;23.992;2023-03-13T09:21:56;93195.28;;;14.41;34.32
3250;BME280;1637;42.020;23.992;2023-03-13T09:24:23;93190.94;;;14.04;33.36
3250;BME280;1637;42.020;23.992;2023-03-13T09:26:50;93183.84;;;13.71;34.47
3250;BME280;1637;42.020;23.992;2023-03-13T09:29:17;93181.34;;;14.47;34.03
3250;BME280;1637;42.020;23.992;2023-03-13T09:31:44;93174.19;;;13.50;34.83
3250;BME280;1637;42.020;23.992;2023-03-13T09:34:11;93177.97;;;13.02;35.17
3250;BME280;1637;42.020;23.992;2023-03-13T09:36:39;93184.31;;;13.66;33.27
3250;BME280;1637;42.020;23.992;2023-03-13T09:39:06;93178.84;;;13.93;32.34
3250;BME280;1637;42.020;23.992;2023-03-13T09:41:36;93173.06;;;14.14;32.25
3250;BME280;1637;42.020;23.992;2023-03-13T09:44:10;93161.66;;;13.17;31.83
3250;BME280;1637;42.020;23.992;2023-03-13T09:46:43;93154.47;;;12.80;34.69
3250;BME280;1637;42.020;23.992;2023-03-13T09:49:22;93151.78;;;11.85;35.96
3250;BME280;1637;42.020;23.992;2023-03-13T09:51:59;93156.56;;;12.38;34.83
3250;BME280;1637;42.020;23.992;2023-03-13T09:54:33;93149.44;;;12.55;33.20
3250;BME280;1637;42.020;23.992;2023-03-13T09:57:05;93154.53;;;11.81;33.96
3250;BME280;1637;42.020;23.992;2023-03-13T09:59:42;93103.94;;;10.35;36.17
3250;BME280;1637;42.020;23.992;2023-03-13T10:02:20;93040.28;;;9.91;37.40
3250;BME280;1637;42.020;23.992;2023-03-13T10:04:51;93141.00;;;11.88;35.47
3250;BME280;1637;42.020;23.992;2023-03-13T10:07:20;93136.53;;;11.75;35.86
3250;BME280;1637;42.020;23.992;2023-03-13T10:09:47;93145.16;;;11.55;36.09
3250;BME280;1637;42.020;23.992;2023-03-13T10:12:18;93152.59;;;11.82;34.27
3250;BME280;1637;42.020;23.992;2023-03-13T10:14:53;93145.91;;;11.56;35.07
3250;BME280;1637;42.020;23.992;2023-03-13T10:17:30;93115.44;;;10.32;36.91
3250;BME280;1637;42.020;23.992;2023-03-13T10:20:01;93144.59;;;12.43;35.10
3250;BME280;1637;42.020;23.992;2023-03-13T10:22:37;93147.03;;;11.99;35.59
3250;BME280;1637;42.020;23.992;2023-03-13T10:25:07;93144.47;;;12.53;34.36
3250;BME280;1637;42.020;23.992;2023-03-13T10:27:42;93134.44;;;11.52;35.07
3250;BME280;1637;42.020;23.992;2023-03-13T10:30:21;93136.63;;;11.64;36.80
3250;BME280;1637;42.020;23.992;2023-03-13T10:32:49;93129.31;;;12.05;35.32
3250;BME280;1637;42.020;23.992;2023-03-13T10:35:23;93122.72;;;12.44;35.51
3250;BME280;1637;42.020;23.992;2023-03-13T10:38:00;93112.09;;;10.80;36.88
3250;BME280;1637;42.020;23.992;2023-03-13T10:40:28;93073.56;;;9.83;38.15
3250;BME280;1637;42.020;23.992;2023-03-13T10:43:00;93114.53;;;9.58;38.72
3250;BME280;1637;42.020;23.992;2023-03-13T10:45:31;93103.59;;;10.22;40.09
3250;BME280;1637;42.020;23.992;2023-03-13T10:48:02;93101.38;;;10.76;37.73
3250;BME280;1637;42.020;23.992;2023-03-13T10:50:33;93097.16;;;11.23;34.74
3250;BME280;1637;42.020;23.992;2023-03-13T10:53:20;93091.31;;;10.39;37.05
3250;BME280;1637;42.020;23.992;2023-03-13T10:55:47;93095.09;;;9.40;36.54
3250;BME280;1637;42.020;23.992;2023-03-13T10:58:18;93093.63;;;10.89;34.68
3250;BME280;1637;42.020;23.992;2023-03-13T11:00:46;93092.25;;;11.18;33.93
3250;BME280;1637;42.020;23.992;2023-03-13T11:03:15;93087.59;;;11.63;33.97
3250;BME280;1637;42.020;23.992;2023-03-13T11:05:43;93084.69;;;11.85;34.19
3250;BME280;1637;42.020;23.992;2023-03-13T11:08:22;93074.59;;;12.80;33.40
3250;BME280;1637;42.020;23.992;2023-03-13T11:10:57;93064.66;;;10.73;36.00
3250;BME280;1637;42.020;23.992;2023-03-13T11:13:30;93064.00;;;10.58;37.46
3250;BME280;1637;42.020;23.992;2023-03-13T11:16:05;93061.16;;;10.24;36.65
3250;BME280;1637;42.020;23.992;2023-03-13T11:18:40;93061.44;;;11.33;36.56
3250;BME280;1637;42.020;23.992;2023-03-13T11:21:16;93060.44;;;11.20;36.48
3250;BME280;1637;42.020;23.992;2023-03-13T11:23:50;93047.63;;;11.39;34.69
3250;BME280;1637;42.020;23.992;2023-03-13T11:26:24;93048.84;;;11.30;34.84
3250;BME280;1637;42.020;23.992;2023-03-13T11:28:56;93051.06;;;11.39;35.39
3250;BME280;1637;42.020;23.992;2023-03-13T11:31:28;92989.22;;;10.30;36.59
3250;BME280;1637;42.020;23.992;2023-03-13T11:34:04;93038.72;;;10.63;37.45
3250;BME280;1637;42.020;23.992;2023-03-13T11:36:34;93035.50;;;10.82;34.30
3250;BME280;1637;42.020;23.992;2023-03-13T11:39:34;93042.38;;;11.62;34.56
3250;BME280;1637;42.020;23.992;2023-03-13T11:42:14;93032.38;;;11.28;34.67
3250;BME280;1637;42.020;23.992;2023-03-13T11:44:54;93030.56;;;11.56;36.43
3250;BME280;1637;42.020;23.992;2023-03-13T11:47:32;93019.25;;;10.59;35.62
3250;BME280;1637;42.020;23.992;2023-03-13T11:50:25;93018.22;;;11.96;35.18
3250;BME280;1637;42.020;23.992;2023-03-13T11:53:06;93009.19;;;12.40;34.56
3250;BME280;1637;42.020;23.992;2023-03-13T11:55:51;93013.13;;;11.71;34.84
3250;BME280;1637;42.020;23.992;2023-03-13T11:58:47;93005.41;;;10.64;37.71
3250;BME280;1637;42.020;23.992;2023-03-13T12:01:17;93004.66;;;11.05;37.37
3250;BME280;1637;42.020;23.992;2023-03-13T12:03:54;92999.94;;;11.53;36.42
3250;BME280;1637;42.020;23.992;2023-03-13T12:06:25;92931.31;;;11.56;36.25
3250;BME280;1637;42.020;23.992;2023-03-13T12:08:59;93005.13;;;12.01;34.38
3250;BME280;1637;42.020;23.992;2023-03-13T12:11:32;92990.59;;;11.65;35.93
3250;BME280;1637;42.020;23.992;2023-03-13T12:14:05;92990.81;;;11.47;34.62
3250;BME280;1637;42.020;23.992;2023-03-13T12:16:40;92998.63;;;12.53;34.42
3250;BME280;1637;42.020;23.992;2023-03-13T12:19:10;93004.84;;;12.23;33.21
3250;BME280;1637;42.020;23.992;2023-03-13T12:21:42;93000.50;;;12.29;33.76
3250;BME280;1637;42.020;23.992;2023-03-13T12:24:20;92957.22;;;11.66;33.77
3250;BME280;1637;42.020;23.992;2023-03-13T12:26:52;92981.00;;;11.64;34.02
3250;BME280;1637;42.020;23.992;2023-03-13T12:29:29;92991.69;;;12.28;33.94
3250;BME280;1637;42.020;23.992;2023-03-13T12:32:05;92984.81;;;12.51;33.79
3250;BME280;1637;42.020;23.992;2023-03-13T12:34:38;92977.75;;;12.37;34.92
3250;BME280;1637;42.020;23.992;2023-03-13T12:37:17;92987.34;;;12.38;32.86
3250;BME280;1637;42.020;23.992;2023-03-13T12:39:50;92981.88;;;12.18;33.52
3250;BME280;1637;42.020;23.992;2023-03-13T12:42:35;92980.03;;;12.38;33.88
3250;BME280;1637;42.020;23.992;2023-03-13T12:45:04;92970.97;;;12.29;34.88
3250;BME280;1637;42.020;23.992;2023-03-13T12:47:34;92974.66;;;12.12;34.39
3250;BME280;1637;42.020;23.992;2023-03-13T12:50:22;92973.72;;;12.25;35.81
3250;BME280;1637;42.020;23.992;2023-03-13T12:53:22;92977.72;;;12.14;35.93
3250;BME280;1637;42.020;23.992;2023-03-13T12:59:09;92965.56;;;11.75;33.96
3250;BME280;1637;42.020;23.992;2023-03-13T13:01:41;92978.91;;;11.82;34.74
3250;BME280;1637;42.020;23.992;2023-03-13T13:04:11;92959.63;;;11.91;32.08
3250;BME280;1637;42.020;23.992;2023-03-13T13:06:55;92974.97;;;11.60;33.00
3250;BME280;1637;42.020;23.992;2023-03-13T13:09:25;92974.09;;;11.66;34.39
3250;BME280;1637;42.020;23.992;2023-03-13T13:11:53;92981.41;;;12.23;33.93
3250;BME280;1637;42.020;23.992;2023-03-13T13:14:59;92976.09;;;12.20;32.46
3250;BME280;1637;42.020;23.992;2023-03-13T13:17:39;92980.59;;;11.99;35.38
3250;BME280;1637;42.020;23.992;2023-03-13T13:20:37;92978.22;;;11.75;35.29
3250;BME280;1637;42.020;23.992;2023-03-13T13:23:27;92980.22;;;11.67;34.99
3250;BME280;1637;42.020;23.992;2023-03-13T13:32:52;92979.56;;;11.59;36.13
3250;BME280;1637;42.020;23.992;2023-03-13T13:35:30;92956.81;;;11.41;36.26
3250;BME280;1637;42.020;23.992;2023-03-13T13:38:28;92971.91;;;11.24;36.46